sensor_id;sensor_type;location;lat;lon;timestamp;temperature;humidity
51619;DHT22;38518;53.164;5.430;2022-07-04T00:00:08;16.40;93.20
51619;DHT22;38518;53.164;5.430;2022-07-04T00:02:35;16.40;93.40
51619;DHT22;38518;53.164;5.430;2022-07-04T00:05:00;16.40;93.80
51619;DHT22;38518;53.164;5.430;2022-07-04T00:07:27;16.50;91.50
51619;DHT22;38518;53.164;5.430;2022-07-04T00:09:53;16.50;91.40
51619;DHT22;38518;53.164;5.430;2022-07-04T00:12:18;16.50;91.70
51619;DHT22;38518;53.164;5.430;2022-07-04T00:14:44;16.50;90.50
51619;DHT22;38518;53.164;5.430;2022-07-04T00:17:10;16.40;91.20
51619;DHT22;38518;53.164;5.430;2022-07-04T00:19:36;16.50;90.30
51619;DHT22;38518;53.164;5.430;2022-07-04T00:22:02;16.50;90.70
51619;DHT22;38518;53.164;5.430;2022-07-04T00:24:27;16.40;90.30
51619;DHT22;38518;53.164;5.430;2022-07-04T00:26:53;16.40;91.30
51619;DHT22;38518;53.164;5.430;2022-07-04T00:29:19;16.40;92.50
51619;DHT22;38518;53.164;5.430;2022-07-04T00:31:44;16.40;97.10
51619;DHT22;38518;53.164;5.430;2022-07-04T00:34:10;16.50;99.90
51619;DHT22;38518;53.164;5.430;2022-07-04T00:36:36;16.40;99.90
51619;DHT22;38518;53.164;5.430;2022-07-04T00:39:02;16.50;99.90
51619;DHT22;38518;53.164;5.430;2022-07-04T00:41:28;16.50;99.90
51619;DHT22;38518;53.164;5.430;2022-07-04T00:44:05;16.50;99.90
51619;DHT22;38518;53.164;5.430;2022-07-04T00:46:31;16.50;99.90
51619;DHT22;38518;53.164;5.430;2022-07-04T00:48:58;16.50;99.90
51619;DHT22;38518;53.164;5.430;2022-07-04T00:51:24;16.60;99.90
51619;DHT22;38518;53.164;5.430;2022-07-04T00:53:53;16.60;99.90
51619;DHT22;38518;53.164;5.430;2022-07-04T00:56:21;16.50;99.90
51619;DHT22;38518;53.164;5.430;2022-07-04T00:58:47;16.60;99.90
51619;DHT22;38518;53.164;5.430;2022-07-04T01:01:13;16.60;99.90
51619;DHT22;38518;53.164;5.430;2022-07-04T01:03:39;16.60;99.90
51619;DHT22;38518;53.164;5.430;2022-07-04T01:06:06;16.60;99.90
51619;DHT22;38518;53.164;5.430;2022-07-04T01:08:37;16.70;99.90
51619;DHT22;38518;53.164;5.430;2022-07-04T01:11:08;16.60;99.90
51619;DHT22;38518;53.164;5.430;2022-07-04T01:13:35;16.60;99.90
51619;DHT22;38518;53.164;5.430;2022-07-04T01:16:01;16.60;99.90
51619;DHT22;38518;53.164;5.430;2022-07-04T01:18:27;16.60;99.90
51619;DHT22;38518;53.164;5.430;2022-07-04T01:20:53;16.60;99.90
51619;DHT22;38518;53.164;5.430;2022-07-04T01:23:18;16.60;99.90
51619;DHT22;38518;53.164;5.430;2022-07-04T01:25:44;16.60;99.90
51619;DHT22;38518;53.164;5.430;2022-07-04T01:28:11;16.50;99.90
51619;DHT22;38518;53.164;5.430;2022-07-04T01:30:37;16.50;99.90
51619;DHT22;38518;53.164;5.430;2022-07-04T01:33:04;16.50;99.90
51619;DHT22;38518;53.164;5.430;2022-07-04T01:35:30;16.50;99.90
51619;DHT22;38518;53.164;5.430;2022-07-04T01:37:56;16.50;99.90
51619;DHT22;38518;53.164;5.430;2022-07-04T01:40:22;16.50;99.90
51619;DHT22;38518;53.164;5.430;2022-07-04T01:42:48;16.40;99.90
51619;DHT22;38518;53.164;5.430;2022-07-04T01:45:14;16.40;99.90
51619;DHT22;38518;53.164;5.430;2022-07-04T01:47:40;16.30;99.90
51619;DHT22;38518;53.164;5.430;2022-07-04T01:50:08;16.30;99.90
51619;DHT22;38518;53.164;5.430;2022-07-04T01:52:38;16.30;99.90
51619;DHT22;38518;53.164;5.430;2022-07-04T01:55:05;16.30;99.90
51619;DHT22;38518;53.164;5.430;2022-07-04T01:57:31;16.20;99.90
51619;DHT22;38518;53.164;5.430;2022-07-04T01:59:57;16.20;99.90
51619;DHT22;38518;53.164;5.430;2022-07-04T02:02:41;16.20;99.90
51619;DHT22;38518;53.164;5.430;2022-07-04T02:05:07;16.20;99.90
51619;DHT22;38518;53.164;5.430;2022-07-04T02:07:33;16.20;99.90
51619;DHT22;38518;53.164;5.430;2022-07-04T02:09:59;16.30;99.90
51619;DHT22;38518;53.164;5.430;2022-07-04T02:12:25;16.30;99.90
51619;DHT22;38518;53.164;5.430;2022-07-04T02:15:09;16.30;99.90
51619;DHT22;38518;53.164;5.430;2022-07-04T02:17:36;16.40;99.90
51619;DHT22;38518;53.164;5.430;2022-07-04T02:20:02;16.40;99.90
51619;DHT22;38518;53.164;5.430;2022-07-04T02:22:30;16.40;99.90
51619;DHT22;38518;53.164;5.430;2022-07-04T02:24:56;16.40;99.90
51619;DHT22;38518;53.164;5.430;2022-07-04T02:27:22;16.50;99.90
51619;DHT22;38518;53.164;5.430;2022-07-04T02:29:48;16.50;99.90
51619;DHT22;38518;53.164;5.430;2022-07-04T02:32:14;16.50;99.90
51619;DHT22;38518;53.164;5.430;2022-07-04T02:34:42;16.50;99.90
51619;DHT22;38518;53.164;5.430;2022-07-04T02:37:08;16.50;99.90
51619;DHT22;38518;53.164;5.430;2022-07-04T02:39:35;16.40;99.90
51619;DHT22;38518;53.164;5.430;2022-07-04T02:42:01;16.60;99.90
51619;DHT22;38518;53.164;5.430;2022-07-04T02:44:27;16.60;99.90
51619;DHT22;38518;53.164;5.430;2022-07-04T02:46:53;16.60;99.90
51619;DHT22;38518;53.164;5.430;2022-07-04T02:49:19;16.60;99.90
51619;DHT22;38518;53.164;5.430;2022-07-04T02:51:45;16.60;99.90
51619;DHT22;38518;53.164;5.430;2022-07-04T02:54:11;16.60;99.90
51619;DHT22;38518;53.164;5.430;2022-07-04T02:56:37;16.60;99.90
51619;DHT22;38518;53.164;5.430;2022-07-04T02:59:03;16.60;99.90
51619;DHT22;38518;53.164;5.430;2022-07-04T03:01:29;16.60;99.90
51619;DHT22;38518;53.164;5.430;2022-07-04T03:03:54;16.60;99.90
51619;DHT22;38518;53.164;5.430;2022-07-04T03:06:20;16.60;99.90
51619;DHT22;38518;53.164;5.430;2022-07-04T03:08:45;16.60;99.90
51619;DHT22;38518;53.164;5.430;2022-07-04T03:11:11;16.50;99.90
51619;DHT22;38518;53.164;5.430;2022-07-04T03:13:39;16.40;99.90
51619;DHT22;38518;53.164;5.430;2022-07-04T03:16:05;16.40;99.90
51619;DHT22;38518;53.164;5.430;2022-07-04T03:18:31;16.30;99.90
51619;DHT22;38518;53.164;5.430;2022-07-04T03:21:01;16.30;99.90
51619;DHT22;38518;53.164;5.430;2022-07-04T03:23:27;16.20;99.90
51619;DHT22;38518;53.164;5.430;2022-07-04T03:25:53;16.20;99.90
51619;DHT22;38518;53.164;5.430;2022-07-04T03:28:18;16.10;99.90
51619;DHT22;38518;53.164;5.430;2022-07-04T03:30:44;16.10;99.90
51619;DHT22;38518;53.164;5.430;2022-07-04T03:33:10;16.10;99.90
51619;DHT22;38518;53.164;5.430;2022-07-04T03:35:36;16.00;99.90
51619;DHT22;38518;53.164;5.430;2022-07-04T03:38:02;16.10;99.90
51619;DHT22;38518;53.164;5.430;2022-07-04T03:40:27;16.00;99.90
51619;DHT22;38518;53.164;5.430;2022-07-04T03:42:57;16.00;99.90
51619;DHT22;38518;53.164;5.430;2022-07-04T03:45:24;16.00;99.90
51619;DHT22;38518;53.164;5.430;2022-07-04T03:47:50;16.10;99.90
51619;DHT22;38518;53.164;5.430;2022-07-04T03:50:17;16.10;99.90
51619;DHT22;38518;53.164;5.430;2022-07-04T03:52:43;16.60;99.90
51619;DHT22;38518;53.164;5.430;2022-07-04T03:55:10;16.10;99.90
51619;DHT22;38518;53.164;5.430;2022-07-04T03:57:35;16.10;99.90
51619;DHT22;38518;53.164;5.430;2022-07-04T04:00:03;16.10;99.90
51619;DHT22;38518;53.164;5.430;2022-07-04T04:02:29;16.10;99.90
51619;DHT22;38518;53.164;5.430;2022-07-04T04:04:55;16.20;99.90
51619;DHT22;38518;53.164;5.430;2022-07-04T04:07:39;16.20;99.90
51619;DHT22;38518;53.164;5.430;2022-07-04T04:10:05;16.20;99.90
51619;DHT22;38518;53.164;5.430;2022-07-04T04:12:32;16.20;99.90
51619;DHT22;38518;53.164;5.430;2022-07-04T04:14:58;16.20;99.90
51619;DHT22;38518;53.164;5.430;2022-07-04T04:17:23;16.20;99.90
51619;DHT22;38518;53.164;5.430;2022-07-04T04:19:49;16.20;99.90
51619;DHT22;38518;53.164;5.430;2022-07-04T04:22:15;16.20;99.90
51619;DHT22;38518;53.164;5.430;2022-07-04T04:24:41;16.20;99.90
51619;DHT22;38518;53.164;5.430;2022-07-04T04:27:06;16.20;99.90
51619;DHT22;38518;53.164;5.430;2022-07-04T04:29:35;16.20;99.90
51619;DHT22;38518;53.164;5.430;2022-07-04T04:32:01;16.20;99.90
51619;DHT22;38518;53.164;5.430;2022-07-04T04:34:27;16.20;99.90
51619;DHT22;38518;53.164;5.430;2022-07-04T04:36:53;16.30;99.90
51619;DHT22;38518;53.164;5.430;2022-07-04T04:39:18;16.30;99.90
51619;DHT22;38518;53.164;5.430;2022-07-04T04:41:47;16.30;99.90
51619;DHT22;38518;53.164;5.430;2022-07-04T04:44:13;16.40;99.90
51619;DHT22;38518;53.164;5.430;2022-07-04T04:46:39;16.40;99.90
51619;DHT22;38518;53.164;5.430;2022-07-04T04:49:04;16.50;99.90
51619;DHT22;38518;53.164;5.430;2022-07-04T04:51:30;16.50;99.90
51619;DHT22;38518;53.164;5.430;2022-07-04T04:53:56;16.60;99.90
51619;DHT22;38518;53.164;5.430;2022-07-04T04:56:22;16.60;99.90
51619;DHT22;38518;53.164;5.430;2022-07-04T04:58:47;16.70;99.90
51619;DHT22;38518;53.164;5.430;2022-07-04T05:01:13;16.70;99.90
51619;DHT22;38518;53.164;5.430;2022-07-04T05:03:39;16.70;99.90
51619;DHT22;38518;53.164;5.430;2022-07-04T05:06:04;16.80;99.90
51619;DHT22;38518;53.164;5.430;2022-07-04T05:08:30;16.80;99.90
51619;DHT22;38518;53.164;5.430;2022-07-04T05:10:56;16.80;99.90
51619;DHT22;38518;53.164;5.430;2022-07-04T05:13:22;16.80;99.90
51619;DHT22;38518;53.164;5.430;2022-07-04T05:15:48;16.90;99.90
51619;DHT22;38518;53.164;5.430;2022-07-04T05:18:14;16.90;99.90
51619;DHT22;38518;53.164;5.430;2022-07-04T05:20:41;16.90;99.90
51619;DHT22;38518;53.164;5.430;2022-07-04T05:23:07;17.00;99.90
51619;DHT22;38518;53.164;5.430;2022-07-04T05:25:32;17.10;99.90
51619;DHT22;38518;53.164;5.430;2022-07-04T05:27:59;17.20;99.90
51619;DHT22;38518;53.164;5.430;2022-07-04T05:30:25;17.30;99.90
51619;DHT22;38518;53.164;5.430;2022-07-04T05:32:50;17.40;99.90
51619;DHT22;38518;53.164;5.430;2022-07-04T05:35:16;17.50;99.90
51619;DHT22;38518;53.164;5.430;2022-07-04T05:37:42;17.60;99.90
51619;DHT22;38518;53.164;5.430;2022-07-04T05:40:10;17.70;99.90
51619;DHT22;38518;53.164;5.430;2022-07-04T05:42:36;17.90;99.90
51619;DHT22;38518;53.164;5.430;2022-07-04T05:45:01;18.10;99.90
51619;DHT22;38518;53.164;5.430;2022-07-04T05:47:27;18.20;99.90
51619;DHT22;38518;53.164;5.430;2022-07-04T05:49:53;18.30;99.90
51619;DHT22;38518;53.164;5.430;2022-07-04T05:52:19;18.20;99.90
51619;DHT22;38518;53.164;5.430;2022-07-04T05:54:45;18.20;99.90
51619;DHT22;38518;53.164;5.430;2022-07-04T05:57:11;18.20;99.90
51619;DHT22;38518;53.164;5.430;2022-07-04T05:59:37;18.20;99.90
51619;DHT22;38518;53.164;5.430;2022-07-04T06:02:03;18.20;99.90
51619;DHT22;38518;53.164;5.430;2022-07-04T06:04:29;18.20;99.90
51619;DHT22;38518;53.164;5.430;2022-07-04T06:06:57;18.30;99.90
51619;DHT22;38518;53.164;5.430;2022-07-04T06:09:23;18.40;99.90
51619;DHT22;38518;53.164;5.430;2022-07-04T06:11:49;18.60;99.90
51619;DHT22;38518;53.164;5.430;2022-07-04T06:14:15;18.60;99.90
51619;DHT22;38518;53.164;5.430;2022-07-04T06:16:40;18.70;99.90
51619;DHT22;38518;53.164;5.430;2022-07-04T06:19:09;19.00;99.90
51619;DHT22;38518;53.164;5.430;2022-07-04T06:21:35;19.30;96.20
51619;DHT22;38518;53.164;5.430;2022-07-04T06:24:00;19.30;93.30
51619;DHT22;38518;53.164;5.430;2022-07-04T06:26:27;19.50;92.90
51619;DHT22;38518;53.164;5.430;2022-07-04T06:28:53;19.70;92.30
51619;DHT22;38518;53.164;5.430;2022-07-04T06:31:19;19.90;86.80
51619;DHT22;38518;53.164;5.430;2022-07-04T06:33:45;20.00;84.60
51619;DHT22;38518;53.164;5.430;2022-07-04T06:36:32;20.20;79.70
51619;DHT22;38518;53.164;5.430;2022-07-04T06:38:59;20.30;69.70
51619;DHT22;38518;53.164;5.430;2022-07-04T06:41:25;20.40;71.10
51619;DHT22;38518;53.164;5.430;2022-07-04T06:43:51;20.40;67.60
51619;DHT22;38518;53.164;5.430;2022-07-04T06:46:17;20.40;63.10
51619;DHT22;38518;53.164;5.430;2022-07-04T06:52:05;20.70;56.90
51619;DHT22;38518;53.164;5.430;2022-07-04T06:54:31;21.10;60.50
51619;DHT22;38518;53.164;5.430;2022-07-04T06:56:57;21.10;57.40
51619;DHT22;38518;53.164;5.430;2022-07-04T06:59:23;21.00;56.30
51619;DHT22;38518;53.164;5.430;2022-07-04T07:01:48;21.00;57.70
51619;DHT22;38518;53.164;5.430;2022-07-04T07:04:14;21.00;58.30
51619;DHT22;38518;53.164;5.430;2022-07-04T07:06:40;21.10;58.30
51619;DHT22;38518;53.164;5.430;2022-07-04T07:09:12;21.10;55.40
51619;DHT22;38518;53.164;5.430;2022-07-04T07:11:40;21.30;54.40
51619;DHT22;38518;53.164;5.430;2022-07-04T07:14:06;21.60;55.90
51619;DHT22;38518;53.164;5.430;2022-07-04T07:16:32;21.80;52.00
51619;DHT22;38518;53.164;5.430;2022-07-04T07:18:57;21.80;45.30
51619;DHT22;38518;53.164;5.430;2022-07-04T07:21:23;21.80;43.70
51619;DHT22;38518;53.164;5.430;2022-07-04T07:23:49;21.80;43.70
51619;DHT22;38518;53.164;5.430;2022-07-04T07:26:15;21.90;43.70
51619;DHT22;38518;53.164;5.430;2022-07-04T07:28:41;22.00;42.90
51619;DHT22;38518;53.164;5.430;2022-07-04T07:31:06;22.00;37.80
51619;DHT22;38518;53.164;5.430;2022-07-04T07:33:32;22.10;39.40
51619;DHT22;38518;53.164;5.430;2022-07-04T07:35:58;22.20;39.90
51619;DHT22;38518;53.164;5.430;2022-07-04T07:38:24;22.30;38.20
51619;DHT22;38518;53.164;5.430;2022-07-04T07:40:49;22.60;39.80
51619;DHT22;38518;53.164;5.430;2022-07-04T07:43:16;22.90;37.70
51619;DHT22;38518;53.164;5.430;2022-07-04T07:45:42;22.80;33.70
51619;DHT22;38518;53.164;5.430;2022-07-04T07:48:07;22.50;32.60
51619;DHT22;38518;53.164;5.430;2022-07-04T07:50:33;22.20;32.20
51619;DHT22;38518;53.164;5.430;2022-07-04T07:52:59;21.90;33.40
51619;DHT22;38518;53.164;5.430;2022-07-04T07:55:24;21.60;32.60
51619;DHT22;38518;53.164;5.430;2022-07-04T07:57:51;21.50;30.70
51619;DHT22;38518;53.164;5.430;2022-07-04T08:00:17;21.40;31.80
51619;DHT22;38518;53.164;5.430;2022-07-04T08:02:43;21.70;37.90
51619;DHT22;38518;53.164;5.430;2022-07-04T08:05:27;22.00;35.40
51619;DHT22;38518;53.164;5.430;2022-07-04T08:07:53;22.00;30.00
51619;DHT22;38518;53.164;5.430;2022-07-04T08:10:19;21.80;28.50
51619;DHT22;38518;53.164;5.430;2022-07-04T08:12:44;21.50;29.40
51619;DHT22;38518;53.164;5.430;2022-07-04T08:15:10;21.20;29.00
51619;DHT22;38518;53.164;5.430;2022-07-04T08:17:36;21.10;29.60
51619;DHT22;38518;53.164;5.430;2022-07-04T08:20:03;21.30;35.90
51619;DHT22;38518;53.164;5.430;2022-07-04T08:22:29;21.90;35.70
51619;DHT22;38518;53.164;5.430;2022-07-04T08:24:54;22.60;31.20
51619;DHT22;38518;53.164;5.430;2022-07-04T08:27:20;23.30;28.90
51619;DHT22;38518;53.164;5.430;2022-07-04T08:29:48;23.80;27.50
51619;DHT22;38518;53.164;5.430;2022-07-04T08:32:14;23.90;23.50
51619;DHT22;38518;53.164;5.430;2022-07-04T08:34:39;23.60;21.40
51619;DHT22;38518;53.164;5.430;2022-07-04T08:37:05;23.70;21.00
51619;DHT22;38518;53.164;5.430;2022-07-04T08:39:32;24.00;17.40
51619;DHT22;38518;53.164;5.430;2022-07-04T08:42:03;24.20;17.40
51619;DHT22;38518;53.164;5.430;2022-07-04T08:44:30;24.50;16.40
51619;DHT22;38518;53.164;5.430;2022-07-04T08:46:56;24.40;15.60
51619;DHT22;38518;53.164;5.430;2022-07-04T08:49:26;24.30;15.60
51619;DHT22;38518;53.164;5.430;2022-07-04T08:52:06;24.30;15.20
51619;DHT22;38518;53.164;5.430;2022-07-04T08:54:34;24.40;15.00
51619;DHT22;38518;53.164;5.430;2022-07-04T08:57:18;24.70;15.40
51619;DHT22;38518;53.164;5.430;2022-07-04T09:00:07;25.00;12.90
51619;DHT22;38518;53.164;5.430;2022-07-04T09:02:34;25.20;10.60
51619;DHT22;38518;53.164;5.430;2022-07-04T09:05:00;25.20;10.60
51619;DHT22;38518;53.164;5.430;2022-07-04T09:07:29;25.40;7.90
51619;DHT22;38518;53.164;5.430;2022-07-04T09:09:57;25.30;6.00
51619;DHT22;38518;53.164;5.430;2022-07-04T09:12:24;25.30;5.60
51619;DHT22;38518;53.164;5.430;2022-07-04T09:14:50;25.20;5.00
51619;DHT22;38518;53.164;5.430;2022-07-04T09:17:19;25.50;6.70
51619;DHT22;38518;53.164;5.430;2022-07-04T09:19:47;25.80;5.60
51619;DHT22;38518;53.164;5.430;2022-07-04T09:22:30;26.10;4.50
51619;DHT22;38518;53.164;5.430;2022-07-04T09:24:56;26.10;4.90
51619;DHT22;38518;53.164;5.430;2022-07-04T09:27:34;26.50;4.60
51619;DHT22;38518;53.164;5.430;2022-07-04T09:30:01;26.60;1.40
51619;DHT22;38518;53.164;5.430;2022-07-04T09:32:38;26.80;2.70
51619;DHT22;38518;53.164;5.430;2022-07-04T09:35:06;26.90;2.70
51619;DHT22;38518;53.164;5.430;2022-07-04T09:37:37;26.70;1.10
51619;DHT22;38518;53.164;5.430;2022-07-04T09:40:05;26.70;1.00
51619;DHT22;38518;53.164;5.430;2022-07-04T09:42:36;26.70;1.00
51619;DHT22;38518;53.164;5.430;2022-07-04T09:45:07;26.60;1.00
51619;DHT22;38518;53.164;5.430;2022-07-04T09:47:33;26.60;1.00
51619;DHT22;38518;53.164;5.430;2022-07-04T09:52:28;25.90;1.00
51619;DHT22;38518;53.164;5.430;2022-07-04T09:55:02;25.20;1.00
51619;DHT22;38518;53.164;5.430;2022-07-04T09:57:32;24.90;1.00
51619;DHT22;38518;53.164;5.430;2022-07-04T10:00:21;24.50;1.00
51619;DHT22;38518;53.164;5.430;2022-07-04T10:02:47;24.80;73.20
51619;DHT22;38518;53.164;5.430;2022-07-04T10:05:21;24.10;1.00
51619;DHT22;38518;53.164;5.430;2022-07-04T10:07:47;23.70;1.00
51619;DHT22;38518;53.164;5.430;2022-07-04T10:10:34;23.40;1.00
51619;DHT22;38518;53.164;5.430;2022-07-04T10:13:06;23.10;1.00
51619;DHT22;38518;53.164;5.430;2022-07-04T10:15:33;22.70;1.00
51619;DHT22;38518;53.164;5.430;2022-07-04T10:18:00;22.70;1.00
51619;DHT22;38518;53.164;5.430;2022-07-04T10:20:26;23.20;2.60
51619;DHT22;38518;53.164;5.430;2022-07-04T10:22:52;23.30;1.00
51619;DHT22;38518;53.164;5.430;2022-07-04T10:25:18;23.10;1.00
51619;DHT22;38518;53.164;5.430;2022-07-04T10:27:44;23.30;1.20
51619;DHT22;38518;53.164;5.430;2022-07-04T10:30:13;23.80;1.80
51619;DHT22;38518;53.164;5.430;2022-07-04T10:32:40;24.30;1.10
51619;DHT22;38518;53.164;5.430;2022-07-04T10:35:11;24.50;1.00
51619;DHT22;38518;53.164;5.430;2022-07-04T10:38:06;24.10;1.00
51619;DHT22;38518;53.164;5.430;2022-07-04T10:40:45;24.30;1.00
51619;DHT22;38518;53.164;5.430;2022-07-04T10:51:44;25.10;1.00
51619;DHT22;38518;53.164;5.430;2022-07-04T10:54:21;25.50;1.00
51619;DHT22;38518;53.164;5.430;2022-07-04T10:56:56;25.60;1.00
51619;DHT22;38518;53.164;5.430;2022-07-04T10:59:27;25.90;1.00
51619;DHT22;38518;53.164;5.430;2022-07-04T11:04:56;26.20;1.00
51619;DHT22;38518;53.164;5.430;2022-07-04T11:17:50;25.20;1.00
51619;DHT22;38518;53.164;5.430;2022-07-04T11:20:18;25.30;1.00
51619;DHT22;38518;53.164;5.430;2022-07-04T11:22:44;25.50;1.00
51619;DHT22;38518;53.164;5.430;2022-07-04T11:25:11;25.80;1.00
51619;DHT22;38518;53.164;5.430;2022-07-04T11:27:40;26.00;1.00
51619;DHT22;38518;53.164;5.430;2022-07-04T11:30:07;25.90;1.00
51619;DHT22;38518;53.164;5.430;2022-07-04T11:32:35;26.20;1.00
51619;DHT22;38518;53.164;5.430;2022-07-04T11:35:02;26.60;1.00
51619;DHT22;38518;53.164;5.430;2022-07-04T11:37:28;26.70;1.00
51619;DHT22;38518;53.164;5.430;2022-07-04T11:39:55;26.80;1.00
51619;DHT22;38518;53.164;5.430;2022-07-04T11:42:40;26.70;1.00
51619;DHT22;38518;53.164;5.430;2022-07-04T11:45:25;26.70;1.00
51619;DHT22;38518;53.164;5.430;2022-07-04T11:47:50;26.70;1.00
51619;DHT22;38518;53.164;5.430;2022-07-04T11:50:17;26.70;1.00
51619;DHT22;38518;53.164;5.430;2022-07-04T11:55:13;25.90;1.00
51619;DHT22;38518;53.164;5.430;2022-07-04T11:57:44;26.00;1.00
51619;DHT22;38518;53.164;5.430;2022-07-04T12:00:13;26.00;1.00
51619;DHT22;38518;53.164;5.430;2022-07-04T12:02:40;26.10;1.00
51619;DHT22;38518;53.164;5.430;2022-07-04T12:05:09;26.30;1.00
51619;DHT22;38518;53.164;5.430;2022-07-04T12:07:37;26.50;1.00
51619;DHT22;38518;53.164;5.430;2022-07-04T12:10:16;26.80;1.00
51619;DHT22;38518;53.164;5.430;2022-07-04T12:12:58;26.80;1.00
51619;DHT22;38518;53.164;5.430;2022-07-04T12:15:31;26.70;1.00
51619;DHT22;38518;53.164;5.430;2022-07-04T12:18:01;26.50;1.00
51619;DHT22;38518;53.164;5.430;2022-07-04T12:20:27;26.50;1.00
51619;DHT22;38518;53.164;5.430;2022-07-04T12:22:58;26.60;1.00
51619;DHT22;38518;53.164;5.430;2022-07-04T12:27:56;26.20;1.00
51619;DHT22;38518;53.164;5.430;2022-07-04T12:30:23;26.20;1.00
51619;DHT22;38518;53.164;5.430;2022-07-04T12:32:51;26.50;1.00
51619;DHT22;38518;53.164;5.430;2022-07-04T12:38:07;26.40;1.00
51619;DHT22;38518;53.164;5.430;2022-07-04T12:40:34;26.40;1.00
51619;DHT22;38518;53.164;5.430;2022-07-04T12:43:01;26.60;1.00
51619;DHT22;38518;53.164;5.430;2022-07-04T12:45:44;26.80;1.00
51619;DHT22;38518;53.164;5.430;2022-07-04T12:48:25;26.80;1.00
51619;DHT22;38518;53.164;5.430;2022-07-04T12:50:51;27.10;1.00
51619;DHT22;38518;53.164;5.430;2022-07-04T12:53:18;27.20;1.00
51619;DHT22;38518;53.164;5.430;2022-07-04T12:55:45;27.10;1.00
51619;DHT22;38518;53.164;5.430;2022-07-04T12:58:12;27.10;1.00
51619;DHT22;38518;53.164;5.430;2022-07-04T13:00:39;27.00;1.00
51619;DHT22;38518;53.164;5.430;2022-07-04T13:03:06;26.90;1.00
51619;DHT22;38518;53.164;5.430;2022-07-04T13:05:36;26.90;1.00
51619;DHT22;38518;53.164;5.430;2022-07-04T13:08:03;26.90;1.00
51619;DHT22;38518;53.164;5.430;2022-07-04T13:10:28;27.00;1.00
51619;DHT22;38518;53.164;5.430;2022-07-04T13:12:54;26.90;1.00
51619;DHT22;38518;53.164;5.430;2022-07-04T13:15:20;26.60;1.00
51619;DHT22;38518;53.164;5.430;2022-07-04T13:17:46;25.80;1.00
51619;DHT22;38518;53.164;5.430;2022-07-04T13:20:12;25.30;1.00
51619;DHT22;38518;53.164;5.430;2022-07-04T13:22:38;25.30;1.00
51619;DHT22;38518;53.164;5.430;2022-07-04T13:25:04;24.90;1.00
51619;DHT22;38518;53.164;5.430;2022-07-04T13:27:31;24.40;1.00
51619;DHT22;38518;53.164;5.430;2022-07-04T13:29:57;24.30;1.00
51619;DHT22;38518;53.164;5.430;2022-07-04T13:32:23;24.20;1.00
51619;DHT22;38518;53.164;5.430;2022-07-04T13:34:48;24.00;1.00
51619;DHT22;38518;53.164;5.430;2022-07-04T13:37:19;23.90;1.00
51619;DHT22;38518;53.164;5.430;2022-07-04T13:39:44;24.30;1.00
51619;DHT22;38518;53.164;5.430;2022-07-04T13:42:11;24.70;1.00
51619;DHT22;38518;53.164;5.430;2022-07-04T13:47:03;24.10;1.00
51619;DHT22;38518;53.164;5.430;2022-07-04T13:49:29;24.10;1.00
51619;DHT22;38518;53.164;5.430;2022-07-04T13:51:54;24.20;1.00
51619;DHT22;38518;53.164;5.430;2022-07-04T13:54:20;24.30;1.00
51619;DHT22;38518;53.164;5.430;2022-07-04T13:56:46;24.70;1.00
51619;DHT22;38518;53.164;5.430;2022-07-04T13:59:12;24.10;1.00
51619;DHT22;38518;53.164;5.430;2022-07-04T14:01:39;23.60;1.00
51619;DHT22;38518;53.164;5.430;2022-07-04T14:04:05;23.80;1.00
51619;DHT22;38518;53.164;5.430;2022-07-04T14:06:32;24.10;1.00
51619;DHT22;38518;53.164;5.430;2022-07-04T14:08:58;24.60;1.00
51619;DHT22;38518;53.164;5.430;2022-07-04T14:11:23;24.90;1.00
51619;DHT22;38518;53.164;5.430;2022-07-04T14:13:49;25.00;1.00
51619;DHT22;38518;53.164;5.430;2022-07-04T14:16:17;25.30;1.00
51619;DHT22;38518;53.164;5.430;2022-07-04T14:18:42;25.50;1.00
51619;DHT22;38518;53.164;5.430;2022-07-04T14:21:08;25.50;1.00
51619;DHT22;38518;53.164;5.430;2022-07-04T14:23:34;25.80;1.00
51619;DHT22;38518;53.164;5.430;2022-07-04T14:26:14;25.90;1.00
51619;DHT22;38518;53.164;5.430;2022-07-04T14:28:42;26.00;1.00
51619;DHT22;38518;53.164;5.430;2022-07-04T14:31:10;26.20;1.00
51619;DHT22;38518;53.164;5.430;2022-07-04T14:33:35;26.50;1.00
51619;DHT22;38518;53.164;5.430;2022-07-04T14:36:03;26.80;1.00
51619;DHT22;38518;53.164;5.430;2022-07-04T14:38:29;26.20;1.00
51619;DHT22;38518;53.164;5.430;2022-07-04T14:40:54;26.00;1.00
51619;DHT22;38518;53.164;5.430;2022-07-04T14:43:20;25.90;1.00
51619;DHT22;38518;53.164;5.430;2022-07-04T14:45:46;26.30;1.00
51619;DHT22;38518;53.164;5.430;2022-07-04T14:48:15;25.90;1.00
51619;DHT22;38518;53.164;5.430;2022-07-04T14:50:41;25.20;1.00
51619;DHT22;38518;53.164;5.430;2022-07-04T14:53:08;24.60;1.00
51619;DHT22;38518;53.164;5.430;2022-07-04T14:55:34;24.70;1.00
51619;DHT22;38518;53.164;5.430;2022-07-04T14:57:59;25.20;1.00
51619;DHT22;38518;53.164;5.430;2022-07-04T15:00:25;25.40;1.00
51619;DHT22;38518;53.164;5.430;2022-07-04T15:02:51;25.30;1.00
51619;DHT22;38518;53.164;5.430;2022-07-04T15:05:16;25.40;1.00
51619;DHT22;38518;53.164;5.430;2022-07-04T15:07:43;25.80;1.00
51619;DHT22;38518;53.164;5.430;2022-07-04T15:10:09;26.10;1.00
51619;DHT22;38518;53.164;5.430;2022-07-04T15:12:35;25.80;1.00
51619;DHT22;38518;53.164;5.430;2022-07-04T15:15:01;26.10;1.00
51619;DHT22;38518;53.164;5.430;2022-07-04T15:17:27;26.00;1.00
51619;DHT22;38518;53.164;5.430;2022-07-04T15:19:52;26.50;1.00
51619;DHT22;38518;53.164;5.430;2022-07-04T15:22:37;26.40;1.00
51619;DHT22;38518;53.164;5.430;2022-07-04T15:25:21;26.80;1.00
51619;DHT22;38518;53.164;5.430;2022-07-04T15:27:46;27.00;1.00
51619;DHT22;38518;53.164;5.430;2022-07-04T15:30:15;26.80;1.00
51619;DHT22;38518;53.164;5.430;2022-07-04T15:32:41;27.20;1.00
51619;DHT22;38518;53.164;5.430;2022-07-04T15:35:07;27.60;1.00
51619;DHT22;38518;53.164;5.430;2022-07-04T15:37:33;27.50;1.00
51619;DHT22;38518;53.164;5.430;2022-07-04T15:39:59;26.70;1.00
51619;DHT22;38518;53.164;5.430;2022-07-04T15:42:24;26.40;1.00
51619;DHT22;38518;53.164;5.430;2022-07-04T15:44:50;26.30;1.00
51619;DHT22;38518;53.164;5.430;2022-07-04T15:47:19;25.50;1.00
51619;DHT22;38518;53.164;5.430;2022-07-04T15:49:44;24.50;1.00
51619;DHT22;38518;53.164;5.430;2022-07-04T15:52:10;24.00;1.00
51619;DHT22;38518;53.164;5.430;2022-07-04T15:54:36;23.60;1.00
51619;DHT22;38518;53.164;5.430;2022-07-04T15:57:01;23.50;1.00
51619;DHT22;38518;53.164;5.430;2022-07-04T15:59:27;23.40;1.00
51619;DHT22;38518;53.164;5.430;2022-07-04T16:01:53;23.30;1.00
51619;DHT22;38518;53.164;5.430;2022-07-04T16:04:20;23.30;1.00
51619;DHT22;38518;53.164;5.430;2022-07-04T16:06:45;23.20;1.00
51619;DHT22;38518;53.164;5.430;2022-07-04T16:09:11;23.00;1.00
51619;DHT22;38518;53.164;5.430;2022-07-04T16:11:37;23.00;1.00
51619;DHT22;38518;53.164;5.430;2022-07-04T16:14:04;23.00;1.00
51619;DHT22;38518;53.164;5.430;2022-07-04T16:16:31;22.80;1.00